Terminal Aerodrome Forecast
Issued by NWS Newport/Morehead City, NC

Home | Current Version | Previous Version | Text Only | Print | Product List | Glossary Off
Versions: 1 2 3 4 5 6 7 8 9 10 11 12 13 14

000
FTUS42 KMHX 242321
TAFEWN
TAF
KEWN 242321Z 2500/2524 02007KT P6SM BKN050
     FM250300 VRB03KT P6SM FEW250
     FM250800 00000KT 4SM BR SKC
     FM251500 11006KT P6SM SCT050=

USA.gov is the U.S. government's official web portal to all federal, state and local government web resources and services.